sensor_id;sensor_type;location;lat;lon;timestamp;temperature;humidity
19060;DHT22;9663;48.996;8.334;2023-03-15T00:00:30;9.50;63.30
19060;DHT22;9663;48.996;8.334;2023-03-15T00:02:55;7.40;61.70
19060;DHT22;9663;48.996;8.334;2023-03-15T00:05:21;7.80;61.80
19060;DHT22;9663;48.996;8.334;2023-03-15T00:07:47;6.90;61.30
19060;DHT22;9663;48.996;8.334;2023-03-15T00:10:13;8.90;62.70
19060;DHT22;9663;48.996;8.334;2023-03-15T00:12:39;7.10;61.60
19060;DHT22;9663;48.996;8.334;2023-03-15T00:15:07;9.30;62.80
19060;DHT22;9663;48.996;8.334;2023-03-15T00:17:35;6.90;60.70
19060;DHT22;9663;48.996;8.334;2023-03-15T00:20:00;6.80;60.70
19060;DHT22;9663;48.996;8.334;2023-03-15T00:22:26;6.70;61.50
19060;DHT22;9663;48.996;8.334;2023-03-15T00:24:52;6.90;60.60
19060;DHT22;9663;48.996;8.334;2023-03-15T00:27:18;6.40;60.60
19060;DHT22;9663;48.996;8.334;2023-03-15T00:29:43;6.20;61.40
19060;DHT22;9663;48.996;8.334;2023-03-15T00:34:35;6.50;61.10
19060;DHT22;9663;48.996;8.334;2023-03-15T00:37:01;6.50;60.90
19060;DHT22;9663;48.996;8.334;2023-03-15T00:39:27;6.00;61.50
19060;DHT22;9663;48.996;8.334;2023-03-15T00:41:52;6.50;61.90
19060;DHT22;9663;48.996;8.334;2023-03-15T00:44:24;6.00;61.70
19060;DHT22;9663;48.996;8.334;2023-03-15T00:46:51;6.10;61.00
19060;DHT22;9663;48.996;8.334;2023-03-15T00:49:16;6.50;61.30
19060;DHT22;9663;48.996;8.334;2023-03-15T00:51:43;7.00;62.80
19060;DHT22;9663;48.996;8.334;2023-03-15T00:54:09;4.70;61.50
19060;DHT22;9663;48.996;8.334;2023-03-15T00:56:38;5.90;62.10
19060;DHT22;9663;48.996;8.334;2023-03-15T00:59:05;6.20;62.20
19060;DHT22;9663;48.996;8.334;2023-03-15T01:01:31;5.60;61.20
19060;DHT22;9663;48.996;8.334;2023-03-15T01:03:57;6.80;63.00
19060;DHT22;9663;48.996;8.334;2023-03-15T01:06:25;5.80;62.40
19060;DHT22;9663;48.996;8.334;2023-03-15T01:08:52;6.90;63.10
19060;DHT22;9663;48.996;8.334;2023-03-15T01:11:23;5.30;62.20
19060;DHT22;9663;48.996;8.334;2023-03-15T01:13:52;7.70;63.70
19060;DHT22;9663;48.996;8.334;2023-03-15T01:16:19;5.50;62.20
19060;DHT22;9663;48.996;8.334;2023-03-15T01:18:45;7.90;64.10
19060;DHT22;9663;48.996;8.334;2023-03-15T01:21:13;5.90;62.00
19060;DHT22;9663;48.996;8.334;2023-03-15T01:23:41;5.60;62.50
19060;DHT22;9663;48.996;8.334;2023-03-15T01:26:10;5.50;62.80
19060;DHT22;9663;48.996;8.334;2023-03-15T01:28:41;4.90;62.20
19060;DHT22;9663;48.996;8.334;2023-03-15T01:31:26;8.30;64.70
19060;DHT22;9663;48.996;8.334;2023-03-15T01:33:55;5.60;62.30
19060;DHT22;9663;48.996;8.334;2023-03-15T01:36:22;5.00;61.80
19060;DHT22;9663;48.996;8.334;2023-03-15T01:38:49;5.00;62.50
19060;DHT22;9663;48.996;8.334;2023-03-15T01:41:16;7.30;64.10
19060;DHT22;9663;48.996;8.334;2023-03-15T01:43:43;4.40;62.30
19060;DHT22;9663;48.996;8.334;2023-03-15T01:46:32;5.20;62.40
19060;DHT22;9663;48.996;8.334;2023-03-15T01:57:16;4.80;62.60
19060;DHT22;9663;48.996;8.334;2023-03-15T01:59:54;4.80;62.80
19060;DHT22;9663;48.996;8.334;2023-03-15T02:02:26;4.60;62.80
19060;DHT22;9663;48.996;8.334;2023-03-15T02:05:00;5.20;63.30
19060;DHT22;9663;48.996;8.334;2023-03-15T02:07:36;5.40;63.10
19060;DHT22;9663;48.996;8.334;2023-03-15T02:10:08;5.00;63.10
19060;DHT22;9663;48.996;8.334;2023-03-15T02:12:48;4.70;63.00
19060;DHT22;9663;48.996;8.334;2023-03-15T02:15:16;4.70;63.00
19060;DHT22;9663;48.996;8.334;2023-03-15T02:17:45;4.90;63.20
19060;DHT22;9663;48.996;8.334;2023-03-15T02:23:14;5.40;62.80
19060;DHT22;9663;48.996;8.334;2023-03-15T02:28:27;5.20;62.70
19060;DHT22;9663;48.996;8.334;2023-03-15T02:30:54;6.20;64.20
19060;DHT22;9663;48.996;8.334;2023-03-15T02:33:32;4.70;62.40
19060;DHT22;9663;48.996;8.334;2023-03-15T02:38:45;4.60;63.00
19060;DHT22;9663;48.996;8.334;2023-03-15T02:41:15;3.60;62.60
19060;DHT22;9663;48.996;8.334;2023-03-15T02:43:45;7.30;64.90
19060;DHT22;9663;48.996;8.334;2023-03-15T02:46:15;4.70;63.50
19060;DHT22;9663;48.996;8.334;2023-03-15T02:48:42;4.60;63.40
19060;DHT22;9663;48.996;8.334;2023-03-15T02:51:19;4.70;62.90
19060;DHT22;9663;48.996;8.334;2023-03-15T02:53:47;5.40;63.00
19060;DHT22;9663;48.996;8.334;2023-03-15T02:56:13;5.10;64.00
19060;DHT22;9663;48.996;8.334;2023-03-15T02:58:39;5.10;64.10
19060;DHT22;9663;48.996;8.334;2023-03-15T03:01:05;7.20;65.10
19060;DHT22;9663;48.996;8.334;2023-03-15T03:03:32;4.50;63.90
19060;DHT22;9663;48.996;8.334;2023-03-15T03:05:58;5.40;64.30
19060;DHT22;9663;48.996;8.334;2023-03-15T03:08:24;7.80;65.60
19060;DHT22;9663;48.996;8.334;2023-03-15T03:10:49;5.20;63.40
19060;DHT22;9663;48.996;8.334;2023-03-15T03:13:15;4.60;64.10
19060;DHT22;9663;48.996;8.334;2023-03-15T03:15:41;4.20;62.80
19060;DHT22;9663;48.996;8.334;2023-03-15T03:18:10;4.20;63.80
19060;DHT22;9663;48.996;8.334;2023-03-15T03:20:36;3.50;63.30
19060;DHT22;9663;48.996;8.334;2023-03-15T03:23:01;4.40;63.90
19060;DHT22;9663;48.996;8.334;2023-03-15T03:25:31;4.40;63.80
19060;DHT22;9663;48.996;8.334;2023-03-15T03:27:58;4.00;63.50
19060;DHT22;9663;48.996;8.334;2023-03-15T03:30:24;3.70;63.50
19060;DHT22;9663;48.996;8.334;2023-03-15T03:32:49;4.50;62.90
19060;DHT22;9663;48.996;8.334;2023-03-15T03:35:15;4.70;63.00
19060;DHT22;9663;48.996;8.334;2023-03-15T03:37:41;4.50;62.90
19060;DHT22;9663;48.996;8.334;2023-03-15T03:40:07;4.30;64.00
19060;DHT22;9663;48.996;8.334;2023-03-15T03:42:34;3.50;63.20
19060;DHT22;9663;48.996;8.334;2023-03-15T03:45:00;4.50;63.00
19060;DHT22;9663;48.996;8.334;2023-03-15T03:47:26;4.60;64.10
19060;DHT22;9663;48.996;8.334;2023-03-15T03:49:52;4.40;62.90
19060;DHT22;9663;48.996;8.334;2023-03-15T03:52:18;4.50;64.20
19060;DHT22;9663;48.996;8.334;2023-03-15T03:54:43;5.60;64.80
19060;DHT22;9663;48.996;8.334;2023-03-15T03:57:09;4.70;63.00
19060;DHT22;9663;48.996;8.334;2023-03-15T03:59:35;4.20;63.90
19060;DHT22;9663;48.996;8.334;2023-03-15T04:02:01;3.70;63.70
19060;DHT22;9663;48.996;8.334;2023-03-15T04:04:27;3.60;63.70
19060;DHT22;9663;48.996;8.334;2023-03-15T04:06:52;3.80;64.00
19060;DHT22;9663;48.996;8.334;2023-03-15T04:09:19;4.70;64.50
19060;DHT22;9663;48.996;8.334;2023-03-15T04:11:46;3.10;63.50
19060;DHT22;9663;48.996;8.334;2023-03-15T04:14:13;4.60;64.30
19060;DHT22;9663;48.996;8.334;2023-03-15T04:16:39;3.20;63.40
19060;DHT22;9663;48.996;8.334;2023-03-15T04:19:06;5.50;64.80
19060;DHT22;9663;48.996;8.334;2023-03-15T04:21:32;4.70;63.50
19060;DHT22;9663;48.996;8.334;2023-03-15T04:23:59;3.90;64.10
19060;DHT22;9663;48.996;8.334;2023-03-15T04:26:27;4.20;65.00
19060;DHT22;9663;48.996;8.334;2023-03-15T04:28:55;4.60;64.30
19060;DHT22;9663;48.996;8.334;2023-03-15T04:31:22;4.40;64.30
19060;DHT22;9663;48.996;8.334;2023-03-15T04:33:54;4.40;63.50
19060;DHT22;9663;48.996;8.334;2023-03-15T04:36:21;2.80;63.00
19060;DHT22;9663;48.996;8.334;2023-03-15T04:38:48;5.50;64.80
19060;DHT22;9663;48.996;8.334;2023-03-15T04:41:16;4.80;64.10
19060;DHT22;9663;48.996;8.334;2023-03-15T04:43:43;3.90;64.50
19060;DHT22;9663;48.996;8.334;2023-03-15T04:46:09;4.30;64.80
19060;DHT22;9663;48.996;8.334;2023-03-15T04:48:36;4.10;64.70
19060;DHT22;9663;48.996;8.334;2023-03-15T04:51:02;3.70;63.20
19060;DHT22;9663;48.996;8.334;2023-03-15T04:53:27;3.20;64.30
19060;DHT22;9663;48.996;8.334;2023-03-15T04:55:53;4.00;64.60
19060;DHT22;9663;48.996;8.334;2023-03-15T04:58:19;3.50;63.50
19060;DHT22;9663;48.996;8.334;2023-03-15T05:03:12;3.80;63.50
19060;DHT22;9663;48.996;8.334;2023-03-15T05:05:38;5.60;66.00
19060;DHT22;9663;48.996;8.334;2023-03-15T05:08:04;4.20;65.30
19060;DHT22;9663;48.996;8.334;2023-03-15T05:10:29;4.30;64.10
19060;DHT22;9663;48.996;8.334;2023-03-15T05:12:55;4.60;64.60
19060;DHT22;9663;48.996;8.334;2023-03-15T05:15:21;4.40;64.10
19060;DHT22;9663;48.996;8.334;2023-03-15T05:17:47;5.30;64.70
19060;DHT22;9663;48.996;8.334;2023-03-15T05:20:14;6.10;66.50
19060;DHT22;9663;48.996;8.334;2023-03-15T05:22:40;4.30;65.00
19060;DHT22;9663;48.996;8.334;2023-03-15T05:25:08;4.20;65.30
19060;DHT22;9663;48.996;8.334;2023-03-15T05:27:35;3.40;64.60
19060;DHT22;9663;48.996;8.334;2023-03-15T05:30:03;4.00;65.00
19060;DHT22;9663;48.996;8.334;2023-03-15T05:32:30;3.60;64.80
19060;DHT22;9663;48.996;8.334;2023-03-15T05:35:03;3.50;64.00
19060;DHT22;9663;48.996;8.334;2023-03-15T05:37:31;3.10;63.60
19060;DHT22;9663;48.996;8.334;2023-03-15T05:39:58;3.60;63.80
19060;DHT22;9663;48.996;8.334;2023-03-15T05:42:25;3.60;65.20
19060;DHT22;9663;48.996;8.334;2023-03-15T05:44:52;3.60;65.00
19060;DHT22;9663;48.996;8.334;2023-03-15T05:47:19;4.40;65.40
19060;DHT22;9663;48.996;8.334;2023-03-15T05:49:45;3.60;63.80
19060;DHT22;9663;48.996;8.334;2023-03-15T05:52:11;4.10;65.40
19060;DHT22;9663;48.996;8.334;2023-03-15T05:54:37;4.00;64.10
19060;DHT22;9663;48.996;8.334;2023-03-15T05:57:03;3.60;65.00
19060;DHT22;9663;48.996;8.334;2023-03-15T05:59:29;3.90;64.20
19060;DHT22;9663;48.996;8.334;2023-03-15T06:01:55;4.30;65.60
19060;DHT22;9663;48.996;8.334;2023-03-15T06:04:21;2.70;64.20
19060;DHT22;9663;48.996;8.334;2023-03-15T06:06:47;3.60;63.70
19060;DHT22;9663;48.996;8.334;2023-03-15T06:09:12;3.60;63.90
19060;DHT22;9663;48.996;8.334;2023-03-15T06:11:38;3.50;65.00
19060;DHT22;9663;48.996;8.334;2023-03-15T06:14:04;3.90;65.30
19060;DHT22;9663;48.996;8.334;2023-03-15T06:16:29;4.30;64.30
19060;DHT22;9663;48.996;8.334;2023-03-15T06:18:55;4.00;64.80
19060;DHT22;9663;48.996;8.334;2023-03-15T06:21:21;4.10;65.50
19060;DHT22;9663;48.996;8.334;2023-03-15T06:23:46;3.80;63.60
19060;DHT22;9663;48.996;8.334;2023-03-15T06:26:12;3.70;63.40
19060;DHT22;9663;48.996;8.334;2023-03-15T06:28:39;3.80;63.70
19060;DHT22;9663;48.996;8.334;2023-03-15T06:31:07;4.10;63.60
19060;DHT22;9663;48.996;8.334;2023-03-15T06:33:34;6.40;65.90
19060;DHT22;9663;48.996;8.334;2023-03-15T06:36:00;4.10;63.60
19060;DHT22;9663;48.996;8.334;2023-03-15T06:38:26;4.50;63.70
19060;DHT22;9663;48.996;8.334;2023-03-15T06:40:51;4.00;64.50
19060;DHT22;9663;48.996;8.334;2023-03-15T06:43:17;5.60;64.00
19060;DHT22;9663;48.996;8.334;2023-03-15T06:45:45;4.60;63.10
19060;DHT22;9663;48.996;8.334;2023-03-15T06:48:12;5.00;63.40
19060;DHT22;9663;48.996;8.334;2023-03-15T06:50:39;3.60;63.70
19060;DHT22;9663;48.996;8.334;2023-03-15T06:53:05;5.60;63.40
19060;DHT22;9663;48.996;8.334;2023-03-15T06:55:31;5.50;63.30
19060;DHT22;9663;48.996;8.334;2023-03-15T06:57:57;5.30;64.60
19060;DHT22;9663;48.996;8.334;2023-03-15T07:00:23;5.60;64.40
19060;DHT22;9663;48.996;8.334;2023-03-15T07:02:49;5.50;64.20
19060;DHT22;9663;48.996;8.334;2023-03-15T07:05:14;5.60;62.60
19060;DHT22;9663;48.996;8.334;2023-03-15T07:07:40;4.90;61.90
19060;DHT22;9663;48.996;8.334;2023-03-15T07:10:06;5.40;62.00
19060;DHT22;9663;48.996;8.334;2023-03-15T07:12:32;6.10;62.60
19060;DHT22;9663;48.996;8.334;2023-03-15T07:14:58;6.60;64.00
19060;DHT22;9663;48.996;8.334;2023-03-15T07:17:24;6.80;64.10
19060;DHT22;9663;48.996;8.334;2023-03-15T07:19:49;6.60;63.50
19060;DHT22;9663;48.996;8.334;2023-03-15T07:24:42;6.40;61.80
19060;DHT22;9663;48.996;8.334;2023-03-15T07:27:11;5.90;62.80
19060;DHT22;9663;48.996;8.334;2023-03-15T07:29:38;6.40;62.40
19060;DHT22;9663;48.996;8.334;2023-03-15T07:32:03;7.10;61.20
19060;DHT22;9663;48.996;8.334;2023-03-15T07:34:29;6.70;61.00
19060;DHT22;9663;48.996;8.334;2023-03-15T07:36:55;7.50;61.50
19060;DHT22;9663;48.996;8.334;2023-03-15T07:39:21;7.10;62.70
19060;DHT22;9663;48.996;8.334;2023-03-15T07:41:48;7.00;62.30
19060;DHT22;9663;48.996;8.334;2023-03-15T07:44:13;7.40;62.10
19060;DHT22;9663;48.996;8.334;2023-03-15T07:46:39;5.90;61.40
19060;DHT22;9663;48.996;8.334;2023-03-15T07:49:05;7.20;60.00
19060;DHT22;9663;48.996;8.334;2023-03-15T07:51:31;7.50;59.80
19060;DHT22;9663;48.996;8.334;2023-03-15T07:53:57;7.50;61.20
19060;DHT22;9663;48.996;8.334;2023-03-15T07:56:22;7.10;59.60
19060;DHT22;9663;48.996;8.334;2023-03-15T07:58:48;7.50;61.00
19060;DHT22;9663;48.996;8.334;2023-03-15T08:01:14;7.50;60.80
19060;DHT22;9663;48.996;8.334;2023-03-15T08:03:39;7.30;59.50
19060;DHT22;9663;48.996;8.334;2023-03-15T08:06:06;7.20;59.50
19060;DHT22;9663;48.996;8.334;2023-03-15T08:08:32;7.60;59.50
19060;DHT22;9663;48.996;8.334;2023-03-15T08:10:58;7.50;59.50
19060;DHT22;9663;48.996;8.334;2023-03-15T08:13:24;7.90;61.10
19060;DHT22;9663;48.996;8.334;2023-03-15T08:15:51;7.70;59.80
19060;DHT22;9663;48.996;8.334;2023-03-15T08:18:16;7.60;61.10
19060;DHT22;9663;48.996;8.334;2023-03-15T08:20:42;8.30;59.60
19060;DHT22;9663;48.996;8.334;2023-03-15T08:23:08;6.90;60.10
19060;DHT22;9663;48.996;8.334;2023-03-15T08:25:33;8.20;58.90
19060;DHT22;9663;48.996;8.334;2023-03-15T08:28:01;8.20;58.90
19060;DHT22;9663;48.996;8.334;2023-03-15T08:30:27;8.60;59.90
19060;DHT22;9663;48.996;8.334;2023-03-15T08:32:52;9.20;59.00
19060;DHT22;9663;48.996;8.334;2023-03-15T08:35:20;8.30;59.60
19060;DHT22;9663;48.996;8.334;2023-03-15T08:37:46;9.50;59.10
19060;DHT22;9663;48.996;8.334;2023-03-15T08:40:17;10.10;60.50
19060;DHT22;9663;48.996;8.334;2023-03-15T08:42:51;7.40;58.90
19060;DHT22;9663;48.996;8.334;2023-03-15T08:45:18;9.50;60.00
19060;DHT22;9663;48.996;8.334;2023-03-15T08:47:45;7.90;57.80
19060;DHT22;9663;48.996;8.334;2023-03-15T08:50:12;9.00;58.20
19060;DHT22;9663;48.996;8.334;2023-03-15T08:52:40;9.50;58.10
19060;DHT22;9663;48.996;8.334;2023-03-15T08:55:06;9.30;58.90
19060;DHT22;9663;48.996;8.334;2023-03-15T08:57:33;9.60;57.70
19060;DHT22;9663;48.996;8.334;2023-03-15T09:00:00;10.30;59.00
19060;DHT22;9663;48.996;8.334;2023-03-15T09:02:31;11.20;59.00
19060;DHT22;9663;48.996;8.334;2023-03-15T09:04:57;10.50;57.30
19060;DHT22;9663;48.996;8.334;2023-03-15T09:07:23;9.90;57.70
19060;DHT22;9663;48.996;8.334;2023-03-15T09:09:49;8.60;56.80
19060;DHT22;9663;48.996;8.334;2023-03-15T09:12:15;10.40;57.80
19060;DHT22;9663;48.996;8.334;2023-03-15T09:14:41;8.70;55.90
19060;DHT22;9663;48.996;8.334;2023-03-15T09:17:07;10.00;56.40
19060;DHT22;9663;48.996;8.334;2023-03-15T09:19:33;9.70;56.60
19060;DHT22;9663;48.996;8.334;2023-03-15T09:21:59;9.30;57.70
19060;DHT22;9663;48.996;8.334;2023-03-15T09:24:24;10.20;56.50
19060;DHT22;9663;48.996;8.334;2023-03-15T09:26:50;9.30;57.40
19060;DHT22;9663;48.996;8.334;2023-03-15T09:29:15;8.90;56.80
19060;DHT22;9663;48.996;8.334;2023-03-15T09:31:41;11.90;56.70
19060;DHT22;9663;48.996;8.334;2023-03-15T09:34:07;10.50;56.70
19060;DHT22;9663;48.996;8.334;2023-03-15T09:36:33;9.30;56.10
19060;DHT22;9663;48.996;8.334;2023-03-15T09:38:59;10.20;55.30
19060;DHT22;9663;48.996;8.334;2023-03-15T09:44:31;10.70;54.40
19060;DHT22;9663;48.996;8.334;2023-03-15T09:47:12;10.00;55.90
19060;DHT22;9663;48.996;8.334;2023-03-15T09:49:53;11.10;56.90
19060;DHT22;9663;48.996;8.334;2023-03-15T09:52:42;10.10;55.10
19060;DHT22;9663;48.996;8.334;2023-03-15T09:55:18;11.80;55.40
19060;DHT22;9663;48.996;8.334;2023-03-15T09:57:54;11.60;56.10
19060;DHT22;9663;48.996;8.334;2023-03-15T10:03:20;10.90;56.00
19060;DHT22;9663;48.996;8.334;2023-03-15T10:05:56;10.40;56.00
19060;DHT22;9663;48.996;8.334;2023-03-15T10:08:25;10.60;55.00
19060;DHT22;9663;48.996;8.334;2023-03-15T10:16:59;11.80;55.20
19060;DHT22;9663;48.996;8.334;2023-03-15T10:19:52;11.20;56.00
19060;DHT22;9663;48.996;8.334;2023-03-15T10:22:36;11.80;53.80
19060;DHT22;9663;48.996;8.334;2023-03-15T10:25:29;11.70;53.70
19060;DHT22;9663;48.996;8.334;2023-03-15T10:28:22;10.70;52.30
19060;DHT22;9663;48.996;8.334;2023-03-15T10:30:52;12.50;50.70
19060;DHT22;9663;48.996;8.334;2023-03-15T10:33:32;10.70;52.00
19060;DHT22;9663;48.996;8.334;2023-03-15T10:36:01;12.20;51.10
19060;DHT22;9663;48.996;8.334;2023-03-15T10:38:34;11.90;49.80
19060;DHT22;9663;48.996;8.334;2023-03-15T10:41:00;11.90;51.00
19060;DHT22;9663;48.996;8.334;2023-03-15T10:43:31;11.40;53.30
19060;DHT22;9663;48.996;8.334;2023-03-15T10:46:10;11.60;52.30
19060;DHT22;9663;48.996;8.334;2023-03-15T10:51:45;11.30;53.50
19060;DHT22;9663;48.996;8.334;2023-03-15T10:54:22;11.20;52.60
19060;DHT22;9663;48.996;8.334;2023-03-15T10:56:53;11.50;52.80
19060;DHT22;9663;48.996;8.334;2023-03-15T10:59:24;11.10;52.80
19060;DHT22;9663;48.996;8.334;2023-03-15T11:02:17;12.40;54.20
19060;DHT22;9663;48.996;8.334;2023-03-15T11:04:49;11.10;53.00
19060;DHT22;9663;48.996;8.334;2023-03-15T11:07:25;10.30;53.90
19060;DHT22;9663;48.996;8.334;2023-03-15T11:09:54;10.70;53.20
19060;DHT22;9663;48.996;8.334;2023-03-15T11:12:25;10.80;53.30
19060;DHT22;9663;48.996;8.334;2023-03-15T11:14:58;10.10;53.20
19060;DHT22;9663;48.996;8.334;2023-03-15T11:17:40;10.60;54.00
19060;DHT22;9663;48.996;8.334;2023-03-15T11:20:34;9.90;55.30
19060;DHT22;9663;48.996;8.334;2023-03-15T11:23:22;10.10;55.20
19060;DHT22;9663;48.996;8.334;2023-03-15T11:25:52;10.70;55.50
19060;DHT22;9663;48.996;8.334;2023-03-15T11:28:23;8.90;56.40
19060;DHT22;9663;48.996;8.334;2023-03-15T11:30:51;9.80;55.30
19060;DHT22;9663;48.996;8.334;2023-03-15T11:33:44;7.80;54.90
19060;DHT22;9663;48.996;8.334;2023-03-15T11:36:22;9.40;55.40
19060;DHT22;9663;48.996;8.334;2023-03-15T11:38:51;9.50;55.80
19060;DHT22;9663;48.996;8.334;2023-03-15T11:46:58;8.30;57.20
19060;DHT22;9663;48.996;8.334;2023-03-15T11:49:47;9.30;57.00
19060;DHT22;9663;48.996;8.334;2023-03-15T11:52:17;9.30;57.60
19060;DHT22;9663;48.996;8.334;2023-03-15T11:54:45;9.90;57.60
19060;DHT22;9663;48.996;8.334;2023-03-15T11:57:34;9.90;57.90
19060;DHT22;9663;48.996;8.334;2023-03-15T12:02:54;9.40;56.80
19060;DHT22;9663;48.996;8.334;2023-03-15T12:05:51;9.80;57.80
19060;DHT22;9663;48.996;8.334;2023-03-15T12:08:49;10.00;56.80
19060;DHT22;9663;48.996;8.334;2023-03-15T12:16:30;10.00;57.10
19060;DHT22;9663;48.996;8.334;2023-03-15T12:19:15;10.20;58.70
19060;DHT22;9663;48.996;8.334;2023-03-15T12:21:45;11.40;56.70
19060;DHT22;9663;48.996;8.334;2023-03-15T12:24:24;11.70;56.30
19060;DHT22;9663;48.996;8.334;2023-03-15T12:29:43;12.60;55.30
19060;DHT22;9663;48.996;8.334;2023-03-15T12:32:17;12.80;56.00
19060;DHT22;9663;48.996;8.334;2023-03-15T12:34:50;14.00;56.80
19060;DHT22;9663;48.996;8.334;2023-03-15T12:37:22;12.60;55.60
19060;DHT22;9663;48.996;8.334;2023-03-15T12:58:53;16.50;52.20
19060;DHT22;9663;48.996;8.334;2023-03-15T13:01:22;16.10;52.10
19060;DHT22;9663;48.996;8.334;2023-03-15T13:03:53;17.50;52.50
19060;DHT22;9663;48.996;8.334;2023-03-15T13:12:31;20.50;44.20
19060;DHT22;9663;48.996;8.334;2023-03-15T13:15:27;20.00;48.30
19060;DHT22;9663;48.996;8.334;2023-03-15T13:18:03;20.60;47.10
19060;DHT22;9663;48.996;8.334;2023-03-15T13:23:38;20.10;45.50
19060;DHT22;9663;48.996;8.334;2023-03-15T13:29:26;16.10;45.70
19060;DHT22;9663;48.996;8.334;2023-03-15T13:32:02;15.70;46.20
19060;DHT22;9663;48.996;8.334;2023-03-15T13:34:37;15.00;48.20
19060;DHT22;9663;48.996;8.334;2023-03-15T13:37:02;14.50;49.30
19060;DHT22;9663;48.996;8.334;2023-03-15T13:39:31;13.70;50.30
19060;DHT22;9663;48.996;8.334;2023-03-15T13:42:15;14.40;51.60
19060;DHT22;9663;48.996;8.334;2023-03-15T13:44:42;12.30;51.10
19060;DHT22;9663;48.996;8.334;2023-03-15T13:47:18;12.10;51.80
19060;DHT22;9663;48.996;8.334;2023-03-15T13:49:47;11.80;52.70
19060;DHT22;9663;48.996;8.334;2023-03-15T13:52:17;11.20;52.90
19060;DHT22;9663;48.996;8.334;2023-03-15T13:54:43;11.40;54.00
19060;DHT22;9663;48.996;8.334;2023-03-15T13:57:20;11.40;53.30
19060;DHT22;9663;48.996;8.334;2023-03-15T14:00:01;11.30;54.10
19060;DHT22;9663;48.996;8.334;2023-03-15T14:02:55;11.20;53.90
19060;DHT22;9663;48.996;8.334;2023-03-15T14:05:28;11.20;54.20
19060;DHT22;9663;48.996;8.334;2023-03-15T14:07:59;11.20;54.10
19060;DHT22;9663;48.996;8.334;2023-03-15T14:10:38;10.10;54.50
19060;DHT22;9663;48.996;8.334;2023-03-15T14:13:50;10.60;54.70
19060;DHT22;9663;48.996;8.334;2023-03-15T14:19:07;9.90;54.10
19060;DHT22;9663;48.996;8.334;2023-03-15T14:21:41;8.70;54.30
19060;DHT22;9663;48.996;8.334;2023-03-15T14:24:16;8.90;54.80
19060;DHT22;9663;48.996;8.334;2023-03-15T14:27:29;9.30;55.10
19060;DHT22;9663;48.996;8.334;2023-03-15T14:29:59;10.50;55.70
19060;DHT22;9663;48.996;8.334;2023-03-15T14:32:27;10.40;55.60
19060;DHT22;9663;48.996;8.334;2023-03-15T14:35:05;12.10;56.70
19060;DHT22;9663;48.996;8.334;2023-03-15T14:37:46;10.40;55.00
19060;DHT22;9663;48.996;8.334;2023-03-15T14:40:37;10.10;55.50
19060;DHT22;9663;48.996;8.334;2023-03-15T14:43:04;10.80;54.80
19060;DHT22;9663;48.996;8.334;2023-03-15T14:45:32;10.70;54.70
19060;DHT22;9663;48.996;8.334;2023-03-15T14:48:06;10.80;54.80
19060;DHT22;9663;48.996;8.334;2023-03-15T14:50:41;10.90;54.30
19060;DHT22;9663;48.996;8.334;2023-03-15T14:53:15;10.90;55.00
19060;DHT22;9663;48.996;8.334;2023-03-15T14:55:46;11.10;54.90
19060;DHT22;9663;48.996;8.334;2023-03-15T14:58:17;12.80;56.00
19060;DHT22;9663;48.996;8.334;2023-03-15T15:00:47;11.50;54.60
19060;DHT22;9663;48.996;8.334;2023-03-15T15:05:48;11.20;55.10
19060;DHT22;9663;48.996;8.334;2023-03-15T15:08:17;11.20;55.30
19060;DHT22;9663;48.996;8.334;2023-03-15T15:10:45;11.40;55.40
19060;DHT22;9663;48.996;8.334;2023-03-15T15:13:21;11.40;54.30
19060;DHT22;9663;48.996;8.334;2023-03-15T15:15:49;11.50;54.90
19060;DHT22;9663;48.996;8.334;2023-03-15T15:18:15;11.80;56.30
19060;DHT22;9663;48.996;8.334;2023-03-15T15:20:42;12.10;56.60
19060;DHT22;9663;48.996;8.334;2023-03-15T15:23:18;14.30;56.90
19060;DHT22;9663;48.996;8.334;2023-03-15T15:25:59;13.50;53.80
19060;DHT22;9663;48.996;8.334;2023-03-15T15:28:28;13.30;54.10
19060;DHT22;9663;48.996;8.334;2023-03-15T15:30:55;12.80;53.60
19060;DHT22;9663;48.996;8.334;2023-03-15T15:33:20;12.60;53.50
19060;DHT22;9663;48.996;8.334;2023-03-15T15:35:49;13.40;54.20
19060;DHT22;9663;48.996;8.334;2023-03-15T15:38:17;13.30;53.90
19060;DHT22;9663;48.996;8.334;2023-03-15T15:40:43;13.20;53.20
19060;DHT22;9663;48.996;8.334;2023-03-15T15:43:10;12.80;53.20
19060;DHT22;9663;48.996;8.334;2023-03-15T15:45:37;12.10;53.30
19060;DHT22;9663;48.996;8.334;2023-03-15T15:48:03;11.90;53.20
19060;DHT22;9663;48.996;8.334;2023-03-15T15:50:34;13.30;54.10
19060;DHT22;9663;48.996;8.334;2023-03-15T15:53:03;13.10;54.40
19060;DHT22;9663;48.996;8.334;2023-03-15T15:55:33;14.60;55.70
19060;DHT22;9663;48.996;8.334;2023-03-15T15:58:01;13.80;55.30
19060;DHT22;9663;48.996;8.334;2023-03-15T16:00:28;16.50;56.50
19060;DHT22;9663;48.996;8.334;2023-03-15T16:02:56;14.90;55.30
19060;DHT22;9663;48.996;8.334;2023-03-15T16:05:24;16.60;55.50
19060;DHT22;9663;48.996;8.334;2023-03-15T16:07:55;16.20;54.60
19060;DHT22;9663;48.996;8.334;2023-03-15T16:10:26;17.00;53.90
19060;DHT22;9663;48.996;8.334;2023-03-15T16:12:56;16.70;53.10
19060;DHT22;9663;48.996;8.334;2023-03-15T16:15:22;17.90;53.00
19060;DHT22;9663;48.996;8.334;2023-03-15T16:17:48;19.10;52.50
19060;DHT22;9663;48.996;8.334;2023-03-15T16:20:15;17.50;50.50
19060;DHT22;9663;48.996;8.334;2023-03-15T16:22:46;18.70;50.70
19060;DHT22;9663;48.996;8.334;2023-03-15T16:25:25;17.00;49.40
19060;DHT22;9663;48.996;8.334;2023-03-15T16:27:55;18.60;50.20
19060;DHT22;9663;48.996;8.334;2023-03-15T16:30:23;16.30;49.40
19060;DHT22;9663;48.996;8.334;2023-03-15T16:32:51;15.80;49.90
19060;DHT22;9663;48.996;8.334;2023-03-15T16:35:25;15.10;50.20
19060;DHT22;9663;48.996;8.334;2023-03-15T16:37:56;15.00;50.90
19060;DHT22;9663;48.996;8.334;2023-03-15T16:40:33;13.80;50.60
19060;DHT22;9663;48.996;8.334;2023-03-15T16:43:00;13.80;51.60
19060;DHT22;9663;48.996;8.334;2023-03-15T16:45:26;13.70;51.90
19060;DHT22;9663;48.996;8.334;2023-03-15T16:47:52;14.40;52.80
19060;DHT22;9663;48.996;8.334;2023-03-15T16:50:20;13.70;51.70
19060;DHT22;9663;48.996;8.334;2023-03-15T16:52:48;13.30;52.30
19060;DHT22;9663;48.996;8.334;2023-03-15T16:55:24;13.30;52.50
19060;DHT22;9663;48.996;8.334;2023-03-15T16:57:52;13.30;51.90
19060;DHT22;9663;48.996;8.334;2023-03-15T17:00:18;12.60;52.70
19060;DHT22;9663;48.996;8.334;2023-03-15T17:02:48;12.40;52.70
19060;DHT22;9663;48.996;8.334;2023-03-15T17:05:16;11.60;52.60
19060;DHT22;9663;48.996;8.334;2023-03-15T17:07:49;12.50;53.40
19060;DHT22;9663;48.996;8.334;2023-03-15T17:10:30;11.20;53.20
19060;DHT22;9663;48.996;8.334;2023-03-15T17:13:01;11.30;53.50
19060;DHT22;9663;48.996;8.334;2023-03-15T17:15:27;11.30;53.20
19060;DHT22;9663;48.996;8.334;2023-03-15T17:17:55;10.70;53.90
19060;DHT22;9663;48.996;8.334;2023-03-15T17:20:23;10.70;54.30
19060;DHT22;9663;48.996;8.334;2023-03-15T17:22:54;10.80;53.70
19060;DHT22;9663;48.996;8.334;2023-03-15T17:25:22;10.90;54.50
19060;DHT22;9663;48.996;8.334;2023-03-15T17:27:49;9.90;54.60
19060;DHT22;9663;48.996;8.334;2023-03-15T17:30:22;10.30;54.90
19060;DHT22;9663;48.996;8.334;2023-03-15T17:32:49;9.70;54.20
19060;DHT22;9663;48.996;8.334;2023-03-15T17:35:17;10.80;55.70
19060;DHT22;9663;48.996;8.334;2023-03-15T17:37:45;9.30;54.40
19060;DHT22;9663;48.996;8.334;2023-03-15T17:40:22;9.90;55.60
19060;DHT22;9663;48.996;8.334;2023-03-15T17:42:54;10.40;56.20